createdAt,value
2023-07-10T00:00:25.713Z,1
2023-07-10T00:02:28.398Z,1
2023-07-10T00:04:25.312Z,1
2023-07-10T00:06:25.711Z,1
2023-07-10T00:08:24.654Z,1
2023-07-10T00:10:30.926Z,1
2023-07-10T00:12:25.066Z,1
2023-07-10T00:14:30.224Z,1
2023-07-10T00:16:29.033Z,1
2023-07-10T00:18:25.570Z,1
2023-07-10T00:20:25.944Z,1
2023-07-10T00:22:25.193Z,1
2023-07-10T00:24:25.653Z,1
2023-07-10T00:26:29.063Z,1
2023-07-10T00:28:25.794Z,1
2023-07-10T00:30:26.665Z,1
2023-07-10T00:32:32.528Z,1
2023-07-10T00:34:25.201Z,1
2023-07-10T00:36:25.764Z,1
2023-07-10T00:38:32.593Z,1
2023-07-10T00:40:25.838Z,1
2023-07-10T00:42:26.851Z,1
2023-07-10T00:44:32.260Z,1
2023-07-10T00:46:28.802Z,1
2023-07-10T00:48:25.778Z,1
2023-07-10T00:50:25.819Z,1
2023-07-10T00:52:29.144Z,1
2023-07-10T00:54:25.661Z,1
2023-07-10T00:56:25.330Z,1
2023-07-10T00:58:30.047Z,1
2023-07-10T01:00:25.898Z,1
2023-07-10T01:02:25.991Z,1
2023-07-10T01:04:28.347Z,1
2023-07-10T01:06:25.711Z,1
2023-07-10T01:08:29.400Z,1
2023-07-10T01:10:32.207Z,1
2023-07-10T01:12:25.152Z,1
2023-07-10T01:14:28.761Z,1
2023-07-10T01:16:25.869Z,1
2023-07-10T01:18:28.843Z,1
2023-07-10T01:20:28.897Z,1
2023-07-10T01:22:25.383Z,1
2023-07-10T01:24:25.793Z,1
2023-07-10T01:26:32.377Z,1
2023-07-10T01:28:25.730Z,1
2023-07-10T01:30:25.855Z,1
2023-07-10T01:32:32.285Z,1
2023-07-10T01:34:25.822Z,1
2023-07-10T01:36:27.632Z,1
2023-07-10T01:38:25.843Z,1
2023-07-10T01:40:28.751Z,1
2023-07-10T01:42:25.706Z,1
2023-07-10T01:44:25.682Z,1
2023-07-10T01:46:26.190Z,1
2023-07-10T01:48:28.737Z,1
2023-07-10T01:50:29.422Z,1
2023-07-10T01:52:25.644Z,1
2023-07-10T01:54:25.677Z,1
2023-07-10T01:56:28.528Z,1
2023-07-10T01:58:29.101Z,1
2023-07-10T02:00:29.232Z,1
2023-07-10T02:02:28.084Z,1
2023-07-10T02:04:29.085Z,1
2023-07-10T02:06:25.528Z,1
2023-07-10T02:08:25.328Z,1
2023-07-10T02:10:35.849Z,1
2023-07-10T02:12:25.804Z,1
2023-07-10T02:14:29.806Z,1
2023-07-10T02:16:32.315Z,1
2023-07-10T02:18:25.118Z,1
2023-07-10T02:20:24.809Z,1
2023-07-10T02:22:25.738Z,0
2023-07-10T02:24:28.838Z,0
2023-07-10T02:26:32.617Z,0
2023-07-10T02:28:25.728Z,0
2023-07-10T02:30:25.798Z,0
2023-07-10T02:32:26.610Z,0
2023-07-10T02:34:25.890Z,0.1
2023-07-10T02:36:32.297Z,0.1
2023-07-10T02:38:25.820Z,0.2
2023-07-10T02:40:24.900Z,0.2
2023-07-10T02:42:25.700Z,0.3
2023-07-10T02:44:29.033Z,0.4
2023-07-10T02:46:28.472Z,0.5
2023-07-10T02:48:25.797Z,0.7
2023-07-10T02:50:31.333Z,0.9
2023-07-10T02:52:31.210Z,1.3
2023-07-10T02:54:25.719Z,1.6
2023-07-10T02:56:25.145Z,2.2
2023-07-10T02:58:24.846Z,3
2023-07-10T03:00:25.796Z,3.9
2023-07-10T03:02:29.207Z,5.5
2023-07-10T03:04:32.481Z,7.4
2023-07-10T03:06:25.426Z,9.5
2023-07-10T03:08:25.105Z,12.2
2023-07-10T03:10:25.858Z,16.4
2023-07-10T03:12:33.158Z,21.1
2023-07-10T03:14:28.384Z,27.1
2023-07-10T03:16:32.485Z,34.8
2023-07-10T03:18:32.138Z,42.5
2023-07-10T03:22:25.341Z,73.7
2023-07-10T03:24:29.240Z,94.6
2023-07-10T03:26:28.512Z,115.6
2023-07-10T03:28:25.698Z,141.2
2023-07-10T03:30:29.465Z,164
2023-07-10T03:32:24.943Z,200.3
2023-07-10T03:34:29.256Z,232.8
2023-07-10T03:36:25.400Z,257.2
2023-07-10T03:38:25.061Z,298.9
2023-07-10T03:40:26.703Z,314.2
2023-07-10T03:42:29.127Z,347.2
2023-07-10T03:44:25.154Z,365
2023-07-10T03:46:25.558Z,383.8
2023-07-10T03:48:25.353Z,424.1
2023-07-10T03:50:29.130Z,445.9
2023-07-10T03:52:25.864Z,445.9
2023-07-10T03:54:25.573Z,468.7
2023-07-10T03:56:25.230Z,468.7
2023-07-10T04:00:29.322Z,492.7
2023-07-10T04:02:25.139Z,518
2023-07-10T04:04:28.661Z,518
2023-07-10T04:08:25.258Z,544.6
2023-07-10T04:10:25.657Z,572.5
2023-07-10T04:12:28.236Z,601.8
2023-07-10T04:16:25.769Z,735.1
2023-07-10T04:18:26.054Z,812.4
2023-07-10T04:20:25.616Z,854.1
2023-07-10T04:22:28.396Z,943.9
2023-07-10T04:24:28.756Z,1152.9
2023-07-10T04:26:25.466Z,1212
2023-07-10T04:28:24.335Z,1339.4
2023-07-10T04:30:25.749Z,1408.1
2023-07-10T04:32:25.261Z,1480.3
2023-07-10T04:34:25.359Z,1556.2
2023-07-10T04:36:30.398Z,1636
2023-07-10T04:38:25.766Z,1636
2023-07-10T04:40:25.905Z,1719.9
2023-07-10T04:42:34.092Z,1719.9
2023-07-10T04:44:25.687Z,1719.9
2023-07-10T04:46:25.543Z,1719.9
2023-07-10T04:48:25.505Z,1719.9
2023-07-10T04:50:30.860Z,1719.9
2023-07-10T04:52:25.706Z,1808
2023-07-10T04:54:25.378Z,1719.9
2023-07-10T04:56:25.747Z,1719.9
2023-07-10T04:58:27.089Z,1808
2023-07-10T05:02:25.959Z,1900.7
2023-07-10T05:04:25.824Z,1900.7
2023-07-10T05:06:28.673Z,1900.7
2023-07-10T05:08:25.341Z,1998.2
2023-07-10T05:10:29.209Z,1998.2
2023-07-10T05:12:26.186Z,2100.6
2023-07-10T05:14:24.871Z,2100.6
2023-07-10T05:16:25.526Z,2100.6
2023-07-10T05:18:25.228Z,2100.6
2023-07-10T05:20:25.291Z,2100.6
2023-07-10T05:22:29.320Z,2100.6
2023-07-10T05:24:24.887Z,2100.6
2023-07-10T05:26:29.091Z,2100.6
2023-07-10T05:28:29.331Z,1998.2
2023-07-10T05:30:25.869Z,1900.7
2023-07-10T05:32:29.323Z,1808
2023-07-10T05:34:31.672Z,1900.7
2023-07-10T05:36:25.300Z,1998.2
2023-07-10T05:38:29.529Z,2100.6
2023-07-10T05:40:29.307Z,2100.6
2023-07-10T05:42:32.406Z,1998.2
2023-07-10T05:46:31.608Z,1808
2023-07-10T05:48:25.798Z,1719.9
2023-07-10T05:50:25.350Z,1719.9
2023-07-10T05:52:29.353Z,1719.9
2023-07-10T05:54:28.655Z,1900.7
2023-07-10T05:56:30.546Z,1998.2
2023-07-10T05:58:25.425Z,1998.2
2023-07-10T06:00:25.232Z,1998.2
2023-07-10T06:02:27.115Z,1998.2
2023-07-10T06:04:27.303Z,1900.7
2023-07-10T06:06:32.675Z,1808
2023-07-10T06:08:28.689Z,1636
2023-07-10T06:10:25.700Z,1556.2
2023-07-10T06:12:29.367Z,1480.3
2023-07-10T06:14:29.188Z,1480.3
2023-07-10T06:16:25.279Z,1636
2023-07-10T06:18:26.674Z,1808
2023-07-10T06:20:25.735Z,1998.2
2023-07-10T06:22:30.125Z,1998.2
2023-07-10T06:24:25.907Z,1900.7
2023-07-10T06:26:25.263Z,1808
2023-07-10T06:28:25.667Z,1636
2023-07-10T06:30:28.401Z,1480.3
2023-07-10T06:32:25.793Z,1408.1
2023-07-10T06:34:28.851Z,1339.4
2023-07-10T06:36:25.090Z,1339.4
2023-07-10T06:38:25.837Z,1339.4
2023-07-10T06:40:25.220Z,1274.1
2023-07-10T06:42:32.628Z,1274.1
2023-07-10T06:44:25.653Z,1339.4
2023-07-10T06:46:25.890Z,1636
2023-07-10T06:48:26.826Z,1808
2023-07-10T06:50:25.424Z,1900.7
2023-07-10T06:54:25.344Z,1900.7
2023-07-10T06:56:25.305Z,1998.2
2023-07-10T06:58:26.024Z,1900.7
2023-07-10T07:00:29.445Z,1719.9
2023-07-10T07:02:28.447Z,1556.2
2023-07-10T07:04:29.327Z,1556.2
2023-07-10T07:06:29.251Z,1556.2
2023-07-10T07:08:25.781Z,1480.3
2023-07-10T07:10:32.692Z,1480.3
2023-07-10T07:12:25.358Z,1408.1
2023-07-10T07:14:25.805Z,1408.1
2023-07-10T07:16:32.559Z,1480.3
2023-07-10T07:18:28.819Z,1556.2
2023-07-10T07:22:25.518Z,1998.2
2023-07-10T07:26:25.601Z,2835.6
2023-07-10T07:28:30.597Z,3463.4
2023-07-10T07:30:29.429Z,3827.6
2023-07-10T07:32:25.762Z,4023.9
2023-07-10T07:34:25.466Z,4447.1
2023-07-10T07:36:25.594Z,4675.1
2023-07-10T07:38:26.072Z,4914.8
2023-07-10T07:40:31.610Z,5166.8
2023-07-10T07:42:25.613Z,5166.8
2023-07-10T07:44:25.550Z,5166.8
2023-07-10T07:46:25.777Z,4914.8
2023-07-10T07:48:30.645Z,4914.8
2023-07-10T07:50:25.492Z,4914.8
2023-07-10T07:52:25.116Z,4447.1
2023-07-10T07:54:25.430Z,4230.2
2023-07-10T07:56:28.676Z,4023.9
2023-07-10T07:58:29.169Z,3827.6
2023-07-10T08:00:26.566Z,3827.6
2023-07-10T08:02:26.640Z,3641
2023-07-10T08:04:29.152Z,3641
2023-07-10T08:06:25.539Z,3463.4
2023-07-10T08:08:25.421Z,3463.4
2023-07-10T08:10:25.805Z,3294.5
2023-07-10T08:12:25.944Z,3133.8
2023-07-10T08:14:30.881Z,2981
2023-07-10T08:16:24.483Z,2981
2023-07-10T08:18:25.971Z,2835.6
2023-07-10T08:20:32.877Z,2697.3
2023-07-10T08:22:25.944Z,2565.7
2023-07-10T08:24:25.992Z,2440.6
2023-07-10T08:26:25.494Z,2565.7
2023-07-10T08:28:26.171Z,2697.3
2023-07-10T08:30:29.297Z,2981
2023-07-10T08:32:25.473Z,3133.8
2023-07-10T08:34:26.992Z,3463.4
2023-07-10T08:36:25.585Z,3641
2023-07-10T08:38:31.436Z,3827.6
2023-07-10T08:40:25.707Z,4023.9
2023-07-10T08:42:33.958Z,4023.9
2023-07-10T08:44:26.004Z,4230.2
2023-07-10T08:46:29.454Z,4230.2
2023-07-10T08:48:25.984Z,4230.2
2023-07-10T08:50:25.615Z,4447.1
2023-07-10T08:52:28.656Z,4675.1
2023-07-10T08:54:26.160Z,4675.1
2023-07-10T08:56:25.949Z,4914.8
2023-07-10T08:58:31.852Z,5166.8
2023-07-10T09:00:25.585Z,5166.8
2023-07-10T09:02:26.174Z,5431.7
2023-07-10T09:04:28.628Z,5710.1
2023-07-10T09:06:29.305Z,5710.1
2023-07-10T09:08:25.481Z,6002.9
2023-07-10T09:10:24.998Z,6310.7
2023-07-10T09:12:29.906Z,6310.7
2023-07-10T09:14:25.963Z,6310.7
2023-07-10T09:16:29.651Z,7332
2023-07-10T09:18:24.541Z,8103.1
2023-07-10T09:20:25.560Z,8103.1
2023-07-10T09:22:28.968Z,8518.5
2023-07-10T09:24:25.448Z,8518.5
2023-07-10T09:26:25.025Z,8955.3
2023-07-10T09:28:28.793Z,8518.5
2023-07-10T09:30:25.994Z,8103.1
2023-07-10T09:32:25.147Z,8103.1
2023-07-10T09:34:25.548Z,8103.1
2023-07-10T09:36:28.313Z,8103.1
2023-07-10T09:38:25.991Z,9897.1
2023-07-10T09:40:25.295Z,9414.4
2023-07-10T09:42:25.503Z,9414.4
2023-07-10T09:44:25.660Z,9414.4
2023-07-10T09:46:31.411Z,9414.4
2023-07-10T09:48:26.124Z,8955.3
2023-07-10T09:50:30.560Z,8955.3
2023-07-10T09:52:25.527Z,8955.3
2023-07-10T09:54:25.353Z,8955.3
2023-07-10T09:56:25.656Z,8955.3
2023-07-10T09:58:26.720Z,8518.5
2023-07-10T10:00:25.676Z,8518.5
2023-07-10T10:02:32.016Z,8955.3
2023-07-10T10:04:29.533Z,8103.1
2023-07-10T10:08:29.560Z,8103.1
2023-07-10T10:10:25.481Z,8955.3
2023-07-10T10:12:33.765Z,8955.3
2023-07-10T10:14:26.336Z,8955.3
2023-07-10T10:16:29.527Z,8955.3
2023-07-10T10:18:25.202Z,8955.3
2023-07-10T10:20:28.188Z,9414.4
2023-07-10T10:22:25.995Z,9897.1
2023-07-10T10:24:33.102Z,9897.1
2023-07-10T10:28:25.710Z,10404.6
2023-07-10T10:30:32.717Z,10404.6
2023-07-10T10:32:26.127Z,10404.6
2023-07-10T10:34:27.216Z,10404.6
2023-07-10T10:36:25.487Z,10404.6
2023-07-10T10:38:29.221Z,10404.6
2023-07-10T10:40:25.138Z,10404.6
2023-07-10T10:42:29.267Z,10404.6
2023-07-10T10:44:25.484Z,10938
2023-07-10T10:48:28.949Z,10938
2023-07-10T10:50:25.411Z,10938
2023-07-10T10:52:28.786Z,10938
2023-07-10T10:54:34.157Z,11498.8
2023-07-10T10:56:26.108Z,11498.8
2023-07-10T10:58:26.118Z,12088.4
2023-07-10T11:00:29.122Z,12088.4
2023-07-10T11:02:32.949Z,12708.2
2023-07-10T11:04:29.418Z,12708.2
2023-07-10T11:06:26.070Z,12088.4
2023-07-10T11:08:29.308Z,12088.4
2023-07-10T11:10:29.286Z,12088.4
2023-07-10T11:12:29.465Z,11498.8
2023-07-10T11:14:26.546Z,12088.4
2023-07-10T11:16:29.758Z,12708.2
2023-07-10T11:18:25.648Z,12088.4
2023-07-10T11:20:25.893Z,12088.4
2023-07-10T11:22:25.514Z,11498.8
2023-07-10T11:24:25.459Z,11498.8
2023-07-10T11:26:25.163Z,11498.8
2023-07-10T11:28:28.561Z,11498.8
2023-07-10T11:30:29.337Z,11498.8
2023-07-10T11:32:29.596Z,11498.8
2023-07-10T11:34:32.529Z,11498.8
2023-07-10T11:36:29.526Z,12088.4
2023-07-10T11:38:25.801Z,12088.4
2023-07-10T11:40:26.237Z,11498.8
2023-07-10T11:42:27.740Z,11498.8
2023-07-10T11:44:31.516Z,11498.8
2023-07-10T11:46:26.061Z,11498.8
2023-07-10T11:48:26.237Z,11498.8
2023-07-10T11:50:25.755Z,11498.8
2023-07-10T11:52:26.032Z,11498.8
2023-07-10T11:54:27.103Z,11498.8
2023-07-10T11:56:26.134Z,10404.6
2023-07-10T11:58:26.088Z,11498.8
2023-07-10T12:00:25.877Z,10938
2023-07-10T12:02:25.555Z,11498.8
2023-07-10T12:04:25.739Z,11498.8
2023-07-10T12:06:25.591Z,11498.8
2023-07-10T12:08:30.695Z,11498.8
2023-07-10T12:10:25.167Z,12088.4
2023-07-10T12:12:28.525Z,12088.4
2023-07-10T12:14:25.814Z,12088.4
2023-07-10T12:16:41.663Z,12088.4
2023-07-10T12:18:25.353Z,9897.1
2023-07-10T12:20:25.536Z,9897.1
2023-07-10T12:22:25.970Z,7707.9
2023-07-10T12:24:29.012Z,6002.9
2023-07-10T12:28:27.378Z,4675.1
2023-07-10T12:30:25.584Z,4230.2
2023-07-10T12:32:29.608Z,4023.9
2023-07-10T12:34:32.336Z,3827.6
2023-07-10T12:36:25.479Z,3641
2023-07-10T12:38:25.472Z,3463.4
2023-07-10T12:40:25.141Z,3294.5
2023-07-10T12:42:28.602Z,3133.8
2023-07-10T12:44:25.872Z,3133.8
2023-07-10T12:46:26.110Z,3294.5
2023-07-10T12:48:36.047Z,3294.5
2023-07-10T12:50:25.595Z,3294.5
2023-07-10T12:52:25.519Z,3294.5
2023-07-10T12:54:33.908Z,3463.4
2023-07-10T12:56:29.585Z,3294.5
2023-07-10T12:58:25.500Z,3294.5
2023-07-10T13:00:25.573Z,3294.5
2023-07-10T13:02:25.550Z,3463.4
2023-07-10T13:04:25.563Z,3827.6
2023-07-10T13:06:25.626Z,4447.1
2023-07-10T13:08:26.072Z,5431.7
2023-07-10T13:10:25.396Z,6634.2
2023-07-10T13:12:29.675Z,8518.5
2023-07-10T13:14:25.668Z,10938
2023-07-10T13:16:25.522Z,11498.8
2023-07-10T13:18:26.082Z,10938
2023-07-10T13:20:39.088Z,10938
2023-07-10T13:22:26.367Z,10404.6
2023-07-10T13:24:29.157Z,9897.1
2023-07-10T13:26:25.526Z,8955.3
2023-07-10T13:28:47.000Z,8518.5
2023-07-10T13:30:25.909Z,7707.9
2023-07-10T13:32:25.556Z,6974.4
2023-07-10T13:34:29.509Z,7332
2023-07-10T13:36:28.828Z,7707.9
2023-07-10T13:40:33.032Z,8103.1
2023-07-10T13:42:25.833Z,7332
2023-07-10T13:44:25.565Z,7707.9
2023-07-10T13:46:32.792Z,10404.6
2023-07-10T13:48:29.525Z,9414.4
2023-07-10T13:50:29.183Z,10404.6
2023-07-10T13:52:28.721Z,9897.1
2023-07-10T13:54:29.591Z,9414.4
2023-07-10T13:56:25.385Z,9414.4
2023-07-10T13:58:26.187Z,9414.4
2023-07-10T14:00:32.844Z,9414.4
2023-07-10T14:02:26.310Z,9414.4
2023-07-10T14:04:32.372Z,9414.4
2023-07-10T14:06:29.018Z,8955.3
2023-07-10T14:08:29.268Z,6974.4
2023-07-10T14:10:25.691Z,7707.9
2023-07-10T14:12:28.182Z,8103.1
2023-07-10T14:14:34.546Z,8955.3
2023-07-10T14:16:29.062Z,8955.3
2023-07-10T14:18:29.454Z,8955.3
2023-07-10T14:20:26.180Z,8518.5
2023-07-10T14:24:25.869Z,7707.9
2023-07-10T14:26:25.598Z,7707.9
2023-07-10T14:28:25.659Z,8103.1
2023-07-10T14:30:27.849Z,6634.2
2023-07-10T14:32:25.536Z,6310.7
2023-07-10T14:34:27.533Z,8518.5
2023-07-10T14:36:29.227Z,8103.1
2023-07-10T14:42:26.214Z,8103.1
2023-07-10T14:44:25.433Z,6002.9
2023-07-10T14:46:26.266Z,6002.9
2023-07-10T14:48:25.661Z,7332
2023-07-10T14:50:28.503Z,5431.7
2023-07-10T14:52:25.500Z,5166.8
2023-07-10T14:54:25.746Z,6310.7
2023-07-10T14:56:32.850Z,5431.7
2023-07-10T14:58:25.587Z,6002.9
2023-07-10T15:00:33.070Z,7332
2023-07-10T15:02:26.461Z,7707.9
2023-07-10T15:04:27.807Z,7707.9
2023-07-10T15:06:25.698Z,7707.9
2023-07-10T15:08:26.285Z,7332
2023-07-10T15:10:32.877Z,7332
2023-07-10T15:12:25.888Z,5431.7
2023-07-10T15:14:29.589Z,5431.7
2023-07-10T15:16:29.421Z,6974.4
2023-07-10T15:18:26.174Z,6974.4
2023-07-10T15:20:25.787Z,6974.4
2023-07-10T15:22:25.989Z,6974.4
2023-07-10T15:24:25.731Z,6974.4
2023-07-10T15:26:27.948Z,6634.2
2023-07-10T15:28:29.244Z,6634.2
2023-07-10T15:30:25.880Z,6634.2
2023-07-10T15:32:26.183Z,6634.2
2023-07-10T15:34:29.212Z,4914.8
2023-07-10T15:36:25.501Z,4675.1
2023-07-10T15:38:25.945Z,5166.8
2023-07-10T15:40:24.291Z,6310.7
2023-07-10T15:42:32.010Z,6310.7
2023-07-10T15:44:29.482Z,6002.9
2023-07-10T15:46:25.914Z,5710.1
2023-07-10T15:48:25.718Z,5710.1
2023-07-10T15:50:32.552Z,5710.1
2023-07-10T15:52:26.279Z,5710.1
2023-07-10T15:54:31.230Z,5710.1
2023-07-10T15:56:29.860Z,5710.1
2023-07-10T16:00:28.908Z,5431.7
2023-07-10T16:02:29.834Z,5166.8
2023-07-10T16:04:33.222Z,5166.8
2023-07-10T16:06:26.272Z,5166.8
2023-07-10T16:08:25.736Z,5166.8
2023-07-10T16:10:33.157Z,4914.8
2023-07-10T16:12:25.708Z,4914.8
2023-07-10T16:14:25.765Z,4675.1
2023-07-10T16:16:26.294Z,4675.1
2023-07-10T16:18:26.076Z,4675.1
2023-07-10T16:20:25.782Z,4675.1
2023-07-10T16:22:26.184Z,4675.1
2023-07-10T16:24:26.392Z,4447.1
2023-07-10T16:26:33.809Z,4447.1
2023-07-10T16:30:29.698Z,4230.2
2023-07-10T16:32:25.628Z,4230.2
2023-07-10T16:34:26.369Z,4023.9
2023-07-10T16:36:29.960Z,4023.9
2023-07-10T16:38:26.820Z,3827.6
2023-07-10T16:40:28.935Z,3827.6
2023-07-10T16:42:26.505Z,3827.6
2023-07-10T16:44:25.810Z,3641
2023-07-10T16:46:29.653Z,3641
2023-07-10T16:48:25.763Z,3463.4
2023-07-10T16:50:31.442Z,3463.4
2023-07-10T16:52:25.806Z,3463.4
2023-07-10T16:54:25.711Z,3294.5
2023-07-10T16:56:26.213Z,3294.5
2023-07-10T16:58:25.875Z,3133.8
2023-07-10T17:00:25.611Z,3133.8
2023-07-10T17:02:28.790Z,3133.8
2023-07-10T17:04:32.772Z,2981
2023-07-10T17:06:32.792Z,2981
2023-07-10T17:08:26.462Z,2835.6
2023-07-10T17:10:25.822Z,2835.6
2023-07-10T17:14:26.310Z,2697.3
2023-07-10T17:16:26.168Z,2565.7
2023-07-10T17:18:28.638Z,2565.7
2023-07-10T17:20:25.870Z,2440.6
2023-07-10T17:22:29.082Z,2321.6
2023-07-10T17:24:25.704Z,2321.6
2023-07-10T17:26:26.474Z,2208.3
2023-07-10T17:28:33.087Z,2100.6
2023-07-10T17:30:28.946Z,2100.6
2023-07-10T17:32:25.824Z,1998.2
2023-07-10T17:34:26.176Z,1900.7
2023-07-10T17:36:25.795Z,1808
2023-07-10T17:38:35.420Z,1808
2023-07-10T17:40:32.935Z,1719.9
2023-07-10T17:42:29.643Z,1636
2023-07-10T17:44:25.934Z,1556.2
2023-07-10T17:48:25.944Z,1480.3
2023-07-10T17:50:24.451Z,1408.1
2023-07-10T17:54:25.570Z,1339.4
2023-07-10T17:56:26.178Z,1274.1
2023-07-10T17:58:29.883Z,1212
2023-07-10T18:00:29.706Z,1212
2023-07-10T18:02:26.358Z,1152.9
2023-07-10T18:04:25.560Z,1096.6
2023-07-10T18:06:25.907Z,1043.1
2023-07-10T18:08:25.795Z,992.3
2023-07-10T18:12:24.557Z,897.8
2023-07-10T18:14:25.916Z,854.1
2023-07-10T18:16:29.484Z,812.4
2023-07-10T18:18:26.058Z,699.2
2023-07-10T18:20:26.009Z,665.1
2023-07-10T18:22:26.801Z,632.7
2023-07-10T18:24:31.509Z,601.8
2023-07-10T18:26:29.986Z,572.5
2023-07-10T18:28:25.901Z,544.6
2023-07-10T18:30:25.604Z,492.7
2023-07-10T18:32:26.489Z,468.7
2023-07-10T18:34:27.806Z,445.9
2023-07-10T18:36:33.146Z,424.1
2023-07-10T18:38:25.534Z,403.4
2023-07-10T18:40:26.031Z,383.8
2023-07-10T18:42:30.956Z,347.2
2023-07-10T18:44:25.916Z,330.3
2023-07-10T18:46:34.340Z,314.2
2023-07-10T18:48:32.875Z,284.3
2023-07-10T18:50:26.145Z,270.4
2023-07-10T18:52:25.927Z,257.2
2023-07-10T18:54:26.674Z,232.8
2023-07-10T18:56:26.297Z,221.4
2023-07-10T18:58:26.001Z,200.3
2023-07-10T19:00:29.889Z,181.3
2023-07-10T19:02:26.019Z,164
2023-07-10T19:04:29.705Z,148.4
2023-07-10T19:06:25.871Z,134.3
2023-07-10T19:12:25.826Z,90
2023-07-10T19:14:33.507Z,77.5
2023-07-10T19:16:29.715Z,66.7
2023-07-10T19:18:33.129Z,57.4
2023-07-10T19:20:29.591Z,49.4
2023-07-10T19:22:26.507Z,40.4
2023-07-10T19:24:26.042Z,34.8
2023-07-10T19:26:26.105Z,27.1
2023-07-10T19:28:27.089Z,21.1
2023-07-10T19:32:26.965Z,12.8
2023-07-10T19:34:25.892Z,9.5
2023-07-10T19:36:34.578Z,7
2023-07-10T19:38:26.364Z,5.2
2023-07-10T19:42:24.426Z,3
2023-07-10T19:44:25.627Z,2.1
2023-07-10T19:46:30.298Z,1.6
2023-07-10T19:48:25.938Z,1.2
2023-07-10T19:50:26.402Z,0.9
2023-07-10T19:54:26.148Z,0.4
2023-07-10T19:56:26.074Z,0.4
2023-07-10T19:58:25.963Z,0.3
2023-07-10T20:00:29.946Z,0.2
2023-07-10T20:02:25.650Z,0.2
2023-07-10T20:04:25.948Z,0.1
2023-07-10T20:08:33.304Z,0
2023-07-10T20:10:30.012Z,0
2023-07-10T20:12:25.766Z,0
2023-07-10T20:14:25.903Z,0
2023-07-10T20:16:26.449Z,0
2023-07-10T20:18:28.703Z,0
2023-07-10T20:22:29.108Z,1
2023-07-10T20:24:27.747Z,1
2023-07-10T20:26:27.900Z,1
2023-07-10T20:28:26.160Z,1
2023-07-10T20:30:27.614Z,1
2023-07-10T20:32:26.360Z,1
2023-07-10T20:34:32.174Z,1
2023-07-10T20:36:26.003Z,1
2023-07-10T20:38:25.836Z,1
2023-07-10T20:40:26.529Z,1
2023-07-10T20:42:26.510Z,1
2023-07-10T20:44:25.681Z,1
2023-07-10T20:46:32.882Z,1
2023-07-10T20:48:29.862Z,1
2023-07-10T20:50:26.522Z,1
2023-07-10T20:52:25.911Z,1
2023-07-10T20:54:25.631Z,1
2023-07-10T20:56:26.385Z,1
2023-07-10T20:58:29.956Z,1
2023-07-10T21:00:26.521Z,1
2023-07-10T21:02:26.151Z,1
2023-07-10T21:04:25.963Z,1
2023-07-10T21:06:26.121Z,1
2023-07-10T21:08:26.937Z,1
2023-07-10T21:10:25.826Z,1
2023-07-10T21:12:27.152Z,1
2023-07-10T21:14:26.185Z,1
2023-07-10T21:16:27.676Z,1
2023-07-10T21:18:32.899Z,1
2023-07-10T21:20:25.833Z,1
2023-07-10T21:22:27.835Z,1
2023-07-10T21:24:25.695Z,1
2023-07-10T21:26:29.915Z,1
2023-07-10T21:28:26.334Z,1
2023-07-10T21:30:26.281Z,1
2023-07-10T21:32:26.000Z,1
2023-07-10T21:34:29.531Z,1
2023-07-10T21:36:29.556Z,1
2023-07-10T21:38:26.391Z,1
2023-07-10T21:40:25.834Z,1
2023-07-10T21:42:25.876Z,1
2023-07-10T21:44:30.986Z,1
2023-07-10T21:46:29.670Z,1
2023-07-10T21:48:29.845Z,1
2023-07-10T21:50:24.563Z,1
2023-07-10T21:52:26.183Z,1
2023-07-10T21:54:28.619Z,1
2023-07-10T21:56:29.257Z,1
2023-07-10T21:58:26.595Z,1
2023-07-10T22:00:25.650Z,1
2023-07-10T22:02:26.497Z,1
2023-07-10T22:04:26.794Z,1
2023-07-10T22:06:28.931Z,1
2023-07-10T22:08:29.416Z,1
2023-07-10T22:10:29.112Z,1
2023-07-10T22:12:25.891Z,1
2023-07-10T22:14:26.290Z,1
2023-07-10T22:16:25.785Z,1
2023-07-10T22:18:25.920Z,1
2023-07-10T22:20:26.159Z,1
2023-07-10T22:24:26.586Z,1
2023-07-10T22:26:26.018Z,1
2023-07-10T22:28:29.609Z,1
2023-07-10T22:30:26.472Z,1
2023-07-10T22:32:25.768Z,1
2023-07-10T22:34:29.573Z,1
2023-07-10T22:36:26.848Z,1
2023-07-10T22:38:26.013Z,1
2023-07-10T22:40:25.943Z,1
2023-07-10T22:42:33.486Z,1
2023-07-10T22:44:29.146Z,1
2023-07-10T22:46:25.867Z,1
2023-07-10T22:48:26.360Z,1
2023-07-10T22:50:25.590Z,1
2023-07-10T22:52:29.658Z,1
2023-07-10T22:54:26.168Z,1
2023-07-10T22:56:29.140Z,1
2023-07-10T22:58:25.595Z,1
2023-07-10T23:00:24.347Z,1
2023-07-10T23:02:33.386Z,1
2023-07-10T23:04:29.613Z,1
2023-07-10T23:06:25.616Z,1
2023-07-10T23:08:29.415Z,1
2023-07-10T23:10:25.898Z,1
2023-07-10T23:12:31.000Z,1
2023-07-10T23:14:25.610Z,1
2023-07-10T23:16:26.267Z,1
2023-07-10T23:18:32.079Z,1
2023-07-10T23:20:25.977Z,1
2023-07-10T23:22:26.592Z,1
2023-07-10T23:24:25.961Z,1
2023-07-10T23:26:27.340Z,1
2023-07-10T23:28:26.040Z,1
2023-07-10T23:30:29.156Z,1
2023-07-10T23:32:28.984Z,1
2023-07-10T23:34:26.152Z,1
2023-07-10T23:36:26.630Z,1
2023-07-10T23:38:29.643Z,1
2023-07-10T23:40:25.642Z,1
2023-07-10T23:42:26.025Z,1
2023-07-10T23:44:26.684Z,1
2023-07-10T23:46:27.345Z,1
2023-07-10T23:48:25.583Z,1
2023-07-10T23:50:26.082Z,1
2023-07-10T23:52:30.218Z,1
2023-07-10T23:54:26.044Z,1
2023-07-10T23:56:27.343Z,1
2023-07-10T23:58:25.642Z,1
